sensor_id;sensor_type;location;lat;lon;timestamp;P1;durP1;ratioP1;P2;durP2;ratioP2
35803;SDS011;21924;51.934;7.414;2023-03-14T00:00:54;5.95;;;2.70;;
35803;SDS011;21924;51.934;7.414;2023-03-14T00:03:39;5.35;;;3.40;;
35803;SDS011;21924;51.934;7.414;2023-03-14T00:06:23;12.25;;;3.08;;
35803;SDS011;21924;51.934;7.414;2023-03-14T00:09:07;9.88;;;3.53;;
35803;SDS011;21924;51.934;7.414;2023-03-14T00:11:54;6.07;;;3.13;;
35803;SDS011;21924;51.934;7.414;2023-03-14T00:14:39;4.05;;;3.13;;
35803;SDS011;21924;51.934;7.414;2023-03-14T00:17:26;10.05;;;2.95;;
35803;SDS011;21924;51.934;7.414;2023-03-14T00:20:11;9.10;;;3.25;;
35803;SDS011;21924;51.934;7.414;2023-03-14T00:22:56;10.48;;;2.78;;
35803;SDS011;21924;51.934;7.414;2023-03-14T00:25:40;10.20;;;3.55;;
35803;SDS011;21924;51.934;7.414;2023-03-14T00:28:24;11.10;;;2.88;;
35803;SDS011;21924;51.934;7.414;2023-03-14T00:31:10;6.38;;;3.03;;
35803;SDS011;21924;51.934;7.414;2023-03-14T00:33:56;11.88;;;2.97;;
35803;SDS011;21924;51.934;7.414;2023-03-14T00:36:40;14.20;;;3.10;;
35803;SDS011;21924;51.934;7.414;2023-03-14T00:39:24;5.82;;;2.40;;
35803;SDS011;21924;51.934;7.414;2023-03-14T00:42:08;6.78;;;3.28;;
35803;SDS011;21924;51.934;7.414;2023-03-14T00:44:53;4.60;;;2.55;;
35803;SDS011;21924;51.934;7.414;2023-03-14T00:47:37;7.07;;;2.65;;
35803;SDS011;21924;51.934;7.414;2023-03-14T00:50:21;15.27;;;3.85;;
35803;SDS011;21924;51.934;7.414;2023-03-14T00:53:06;9.35;;;2.67;;
35803;SDS011;21924;51.934;7.414;2023-03-14T00:55:50;9.25;;;2.88;;
35803;SDS011;21924;51.934;7.414;2023-03-14T00:58:34;13.10;;;3.55;;
35803;SDS011;21924;51.934;7.414;2023-03-14T01:01:18;10.55;;;3.25;;
35803;SDS011;21924;51.934;7.414;2023-03-14T01:04:03;6.20;;;3.17;;
35803;SDS011;21924;51.934;7.414;2023-03-14T01:06:47;11.40;;;3.42;;
35803;SDS011;21924;51.934;7.414;2023-03-14T01:09:32;7.05;;;2.80;;
35803;SDS011;21924;51.934;7.414;2023-03-14T01:12:16;9.80;;;3.03;;
35803;SDS011;21924;51.934;7.414;2023-03-14T01:15:00;9.52;;;3.17;;
35803;SDS011;21924;51.934;7.414;2023-03-14T01:17:45;6.45;;;2.63;;
35803;SDS011;21924;51.934;7.414;2023-03-14T01:20:29;12.60;;;3.58;;
35803;SDS011;21924;51.934;7.414;2023-03-14T01:23:14;10.55;;;3.03;;
35803;SDS011;21924;51.934;7.414;2023-03-14T01:25:58;10.23;;;4.25;;
35803;SDS011;21924;51.934;7.414;2023-03-14T01:28:42;6.63;;;2.97;;
35803;SDS011;21924;51.934;7.414;2023-03-14T01:31:27;5.78;;;2.88;;
35803;SDS011;21924;51.934;7.414;2023-03-14T01:34:11;4.78;;;2.97;;
35803;SDS011;21924;51.934;7.414;2023-03-14T01:36:56;6.15;;;3.25;;
35803;SDS011;21924;51.934;7.414;2023-03-14T01:39:40;10.48;;;3.22;;
35803;SDS011;21924;51.934;7.414;2023-03-14T01:42:24;6.32;;;3.15;;
35803;SDS011;21924;51.934;7.414;2023-03-14T01:45:53;11.10;;;3.47;;
35803;SDS011;21924;51.934;7.414;2023-03-14T01:48:42;5.45;;;2.60;;
35803;SDS011;21924;51.934;7.414;2023-03-14T01:51:49;4.00;;;2.55;;
35803;SDS011;21924;51.934;7.414;2023-03-14T01:57:33;3.53;;;2.50;;
35803;SDS011;21924;51.934;7.414;2023-03-14T02:00:25;4.93;;;3.22;;
35803;SDS011;21924;51.934;7.414;2023-03-14T02:03:11;15.82;;;2.70;;
35803;SDS011;21924;51.934;7.414;2023-03-14T02:05:59;7.90;;;3.15;;
35803;SDS011;21924;51.934;7.414;2023-03-14T02:08:49;10.82;;;2.70;;
35803;SDS011;21924;51.934;7.414;2023-03-14T02:11:34;8.63;;;3.50;;
35803;SDS011;21924;51.934;7.414;2023-03-14T02:14:30;5.90;;;2.83;;
35803;SDS011;21924;51.934;7.414;2023-03-14T02:17:18;3.70;;;2.53;;
35803;SDS011;21924;51.934;7.414;2023-03-14T02:20:09;13.27;;;3.47;;
35803;SDS011;21924;51.934;7.414;2023-03-14T02:22:55;8.85;;;3.05;;
35803;SDS011;21924;51.934;7.414;2023-03-14T02:25:48;6.88;;;2.90;;
35803;SDS011;21924;51.934;7.414;2023-03-14T02:28:38;7.30;;;3.13;;
35803;SDS011;21924;51.934;7.414;2023-03-14T02:31:23;11.90;;;3.03;;
35803;SDS011;21924;51.934;7.414;2023-03-14T02:34:07;10.20;;;2.88;;
35803;SDS011;21924;51.934;7.414;2023-03-14T02:36:52;7.28;;;2.88;;
35803;SDS011;21924;51.934;7.414;2023-03-14T02:39:38;7.90;;;2.90;;
35803;SDS011;21924;51.934;7.414;2023-03-14T02:42:25;8.65;;;3.17;;
35803;SDS011;21924;51.934;7.414;2023-03-14T02:47:57;8.45;;;2.75;;
35803;SDS011;21924;51.934;7.414;2023-03-14T02:50:48;6.00;;;3.15;;
35803;SDS011;21924;51.934;7.414;2023-03-14T02:53:36;5.95;;;2.88;;
35803;SDS011;21924;51.934;7.414;2023-03-14T02:56:21;9.70;;;3.38;;
35803;SDS011;21924;51.934;7.414;2023-03-14T02:59:06;15.90;;;3.88;;
35803;SDS011;21924;51.934;7.414;2023-03-14T03:01:50;14.30;;;4.10;;
35803;SDS011;21924;51.934;7.414;2023-03-14T03:04:34;13.05;;;3.42;;
35803;SDS011;21924;51.934;7.414;2023-03-14T03:07:19;12.60;;;3.53;;
35803;SDS011;21924;51.934;7.414;2023-03-14T03:10:03;4.40;;;3.10;;
35803;SDS011;21924;51.934;7.414;2023-03-14T03:12:48;7.00;;;2.88;;
35803;SDS011;21924;51.934;7.414;2023-03-14T03:15:32;7.22;;;4.28;;
35803;SDS011;21924;51.934;7.414;2023-03-14T03:18:17;4.65;;;2.80;;
35803;SDS011;21924;51.934;7.414;2023-03-14T03:21:02;4.90;;;2.58;;
35803;SDS011;21924;51.934;7.414;2023-03-14T03:23:48;8.38;;;3.90;;
35803;SDS011;21924;51.934;7.414;2023-03-14T03:26:33;5.32;;;2.80;;
35803;SDS011;21924;51.934;7.414;2023-03-14T03:29:18;6.03;;;3.40;;
35803;SDS011;21924;51.934;7.414;2023-03-14T03:32:02;6.00;;;3.40;;
35803;SDS011;21924;51.934;7.414;2023-03-14T03:34:46;7.75;;;2.70;;
35803;SDS011;21924;51.934;7.414;2023-03-14T03:37:31;8.57;;;2.92;;
35803;SDS011;21924;51.934;7.414;2023-03-14T03:40:16;12.48;;;3.63;;
35803;SDS011;21924;51.934;7.414;2023-03-14T03:43:01;6.65;;;3.42;;
35803;SDS011;21924;51.934;7.414;2023-03-14T03:45:47;14.20;;;3.78;;
35803;SDS011;21924;51.934;7.414;2023-03-14T03:48:32;10.60;;;3.88;;
35803;SDS011;21924;51.934;7.414;2023-03-14T03:51:16;16.95;;;4.60;;
35803;SDS011;21924;51.934;7.414;2023-03-14T03:54:01;10.60;;;4.35;;
35803;SDS011;21924;51.934;7.414;2023-03-14T03:56:45;14.00;;;5.00;;
35803;SDS011;21924;51.934;7.414;2023-03-14T03:59:29;10.13;;;5.32;;
35803;SDS011;21924;51.934;7.414;2023-03-14T04:02:14;23.38;;;6.28;;
35803;SDS011;21924;51.934;7.414;2023-03-14T04:04:58;15.30;;;5.55;;
35803;SDS011;21924;51.934;7.414;2023-03-14T04:07:42;19.20;;;5.75;;
35803;SDS011;21924;51.934;7.414;2023-03-14T04:10:27;12.68;;;5.25;;
35803;SDS011;21924;51.934;7.414;2023-03-14T04:13:12;11.98;;;4.65;;
35803;SDS011;21924;51.934;7.414;2023-03-14T04:15:57;7.35;;;4.18;;
35803;SDS011;21924;51.934;7.414;2023-03-14T04:18:41;11.63;;;4.28;;
35803;SDS011;21924;51.934;7.414;2023-03-14T04:21:25;17.42;;;5.30;;
35803;SDS011;21924;51.934;7.414;2023-03-14T04:24:09;8.82;;;4.22;;
35803;SDS011;21924;51.934;7.414;2023-03-14T04:26:54;9.07;;;4.00;;
35803;SDS011;21924;51.934;7.414;2023-03-14T04:29:38;14.77;;;4.45;;
35803;SDS011;21924;51.934;7.414;2023-03-14T04:32:23;16.25;;;5.20;;
35803;SDS011;21924;51.934;7.414;2023-03-14T04:35:07;14.95;;;4.53;;
35803;SDS011;21924;51.934;7.414;2023-03-14T04:37:51;13.52;;;4.60;;
35803;SDS011;21924;51.934;7.414;2023-03-14T04:40:36;22.00;;;6.18;;
35803;SDS011;21924;51.934;7.414;2023-03-14T04:43:21;11.60;;;4.85;;
35803;SDS011;21924;51.934;7.414;2023-03-14T04:46:06;10.07;;;3.97;;
35803;SDS011;21924;51.934;7.414;2023-03-14T04:48:50;7.03;;;4.10;;
35803;SDS011;21924;51.934;7.414;2023-03-14T04:51:35;12.57;;;3.92;;
35803;SDS011;21924;51.934;7.414;2023-03-14T04:54:19;6.07;;;3.63;;
35803;SDS011;21924;51.934;7.414;2023-03-14T04:57:03;11.63;;;3.47;;
35803;SDS011;21924;51.934;7.414;2023-03-14T04:59:47;8.60;;;3.53;;
35803;SDS011;21924;51.934;7.414;2023-03-14T05:02:32;11.57;;;3.42;;
35803;SDS011;21924;51.934;7.414;2023-03-14T05:05:16;6.90;;;3.33;;
35803;SDS011;21924;51.934;7.414;2023-03-14T05:08:00;18.13;;;3.55;;
35803;SDS011;21924;51.934;7.414;2023-03-14T05:10:51;9.43;;;3.75;;
35803;SDS011;21924;51.934;7.414;2023-03-14T05:13:39;14.18;;;3.72;;
35803;SDS011;21924;51.934;7.414;2023-03-14T05:16:24;8.23;;;3.70;;
35803;SDS011;21924;51.934;7.414;2023-03-14T05:19:08;12.27;;;3.33;;
35803;SDS011;21924;51.934;7.414;2023-03-14T05:21:54;13.77;;;4.82;;
35803;SDS011;21924;51.934;7.414;2023-03-14T05:24:38;14.73;;;3.60;;
35803;SDS011;21924;51.934;7.414;2023-03-14T05:27:22;14.35;;;4.03;;
35803;SDS011;21924;51.934;7.414;2023-03-14T05:30:09;6.55;;;2.60;;
35803;SDS011;21924;51.934;7.414;2023-03-14T05:32:54;5.05;;;2.63;;
35803;SDS011;21924;51.934;7.414;2023-03-14T05:35:38;9.98;;;3.63;;
35803;SDS011;21924;51.934;7.414;2023-03-14T05:38:22;9.95;;;2.70;;
35803;SDS011;21924;51.934;7.414;2023-03-14T05:41:06;4.82;;;2.67;;
35803;SDS011;21924;51.934;7.414;2023-03-14T05:43:51;7.20;;;2.60;;
35803;SDS011;21924;51.934;7.414;2023-03-14T05:46:35;7.00;;;2.50;;
35803;SDS011;21924;51.934;7.414;2023-03-14T05:49:19;4.40;;;2.42;;
35803;SDS011;21924;51.934;7.414;2023-03-14T05:52:04;5.43;;;2.70;;
35803;SDS011;21924;51.934;7.414;2023-03-14T05:54:48;7.25;;;2.65;;
35803;SDS011;21924;51.934;7.414;2023-03-14T05:57:33;3.70;;;2.55;;
35803;SDS011;21924;51.934;7.414;2023-03-14T06:00:17;8.60;;;2.58;;
35803;SDS011;21924;51.934;7.414;2023-03-14T06:03:01;5.55;;;2.70;;
35803;SDS011;21924;51.934;7.414;2023-03-14T06:05:45;6.78;;;2.90;;
35803;SDS011;21924;51.934;7.414;2023-03-14T06:08:30;4.75;;;2.42;;
35803;SDS011;21924;51.934;7.414;2023-03-14T06:11:14;4.53;;;2.72;;
35803;SDS011;21924;51.934;7.414;2023-03-14T06:13:58;3.25;;;2.28;;
35803;SDS011;21924;51.934;7.414;2023-03-14T06:16:43;7.20;;;2.95;;
35803;SDS011;21924;51.934;7.414;2023-03-14T06:19:28;8.57;;;3.03;;
35803;SDS011;21924;51.934;7.414;2023-03-14T06:22:12;5.03;;;2.80;;
35803;SDS011;21924;51.934;7.414;2023-03-14T06:24:56;6.63;;;2.72;;
35803;SDS011;21924;51.934;7.414;2023-03-14T06:27:40;6.70;;;3.00;;
35803;SDS011;21924;51.934;7.414;2023-03-14T06:30:24;6.18;;;2.90;;
35803;SDS011;21924;51.934;7.414;2023-03-14T06:33:08;4.88;;;3.17;;
35803;SDS011;21924;51.934;7.414;2023-03-14T06:35:53;7.20;;;3.50;;
35803;SDS011;21924;51.934;7.414;2023-03-14T06:38:37;4.47;;;3.17;;
35803;SDS011;21924;51.934;7.414;2023-03-14T06:41:21;6.60;;;4.40;;
35803;SDS011;21924;51.934;7.414;2023-03-14T06:44:09;9.93;;;6.15;;
35803;SDS011;21924;51.934;7.414;2023-03-14T06:46:53;8.20;;;5.25;;
35803;SDS011;21924;51.934;7.414;2023-03-14T06:49:38;8.65;;;6.05;;
35803;SDS011;21924;51.934;7.414;2023-03-14T06:52:22;16.40;;;5.75;;
35803;SDS011;21924;51.934;7.414;2023-03-14T06:55:07;8.70;;;5.72;;
35803;SDS011;21924;51.934;7.414;2023-03-14T06:57:51;15.00;;;6.57;;
35803;SDS011;21924;51.934;7.414;2023-03-14T07:00:36;9.20;;;6.35;;
35803;SDS011;21924;51.934;7.414;2023-03-14T07:03:20;9.63;;;6.60;;
35803;SDS011;21924;51.934;7.414;2023-03-14T07:06:05;9.73;;;6.63;;
35803;SDS011;21924;51.934;7.414;2023-03-14T07:08:50;16.40;;;7.72;;
35803;SDS011;21924;51.934;7.414;2023-03-14T07:11:35;11.55;;;7.82;;
35803;SDS011;21924;51.934;7.414;2023-03-14T07:14:19;11.80;;;8.43;;
35803;SDS011;21924;51.934;7.414;2023-03-14T07:17:03;15.43;;;8.45;;
35803;SDS011;21924;51.934;7.414;2023-03-14T07:19:47;14.23;;;9.02;;
35803;SDS011;21924;51.934;7.414;2023-03-14T07:22:32;14.13;;;8.20;;
35803;SDS011;21924;51.934;7.414;2023-03-14T07:25:16;18.67;;;10.30;;
35803;SDS011;21924;51.934;7.414;2023-03-14T07:28:01;24.23;;;10.68;;
35803;SDS011;21924;51.934;7.414;2023-03-14T07:30:46;23.52;;;10.35;;
35803;SDS011;21924;51.934;7.414;2023-03-14T07:33:31;19.90;;;9.55;;
35803;SDS011;21924;51.934;7.414;2023-03-14T07:36:16;13.52;;;8.48;;
35803;SDS011;21924;51.934;7.414;2023-03-14T07:39:00;12.82;;;8.38;;
35803;SDS011;21924;51.934;7.414;2023-03-14T07:41:44;13.98;;;7.88;;
35803;SDS011;21924;51.934;7.414;2023-03-14T07:44:29;15.82;;;7.95;;
35803;SDS011;21924;51.934;7.414;2023-03-14T07:47:13;11.77;;;7.30;;
35803;SDS011;21924;51.934;7.414;2023-03-14T07:49:57;10.88;;;7.07;;
35803;SDS011;21924;51.934;7.414;2023-03-14T07:52:42;15.68;;;8.00;;
35803;SDS011;21924;51.934;7.414;2023-03-14T07:55:26;11.93;;;7.75;;
35803;SDS011;21924;51.934;7.414;2023-03-14T07:58:10;11.82;;;7.10;;
35803;SDS011;21924;51.934;7.414;2023-03-14T08:00:55;11.52;;;6.97;;
35803;SDS011;21924;51.934;7.414;2023-03-14T08:03:41;9.38;;;6.68;;
35803;SDS011;21924;51.934;7.414;2023-03-14T08:06:26;9.38;;;6.65;;
35803;SDS011;21924;51.934;7.414;2023-03-14T08:09:10;9.80;;;6.97;;
35803;SDS011;21924;51.934;7.414;2023-03-14T08:11:54;12.02;;;7.22;;
35803;SDS011;21924;51.934;7.414;2023-03-14T08:14:38;8.60;;;6.25;;
35803;SDS011;21924;51.934;7.414;2023-03-14T08:17:22;8.70;;;6.28;;
35803;SDS011;21924;51.934;7.414;2023-03-14T08:20:07;10.60;;;6.35;;
35803;SDS011;21924;51.934;7.414;2023-03-14T08:22:57;16.10;;;6.65;;
35803;SDS011;21924;51.934;7.414;2023-03-14T08:25:43;9.70;;;6.07;;
35803;SDS011;21924;51.934;7.414;2023-03-14T08:28:27;9.30;;;5.95;;
35803;SDS011;21924;51.934;7.414;2023-03-14T08:31:14;8.90;;;5.90;;
35803;SDS011;21924;51.934;7.414;2023-03-14T08:33:59;7.20;;;5.63;;
35803;SDS011;21924;51.934;7.414;2023-03-14T08:36:43;8.27;;;6.20;;
35803;SDS011;21924;51.934;7.414;2023-03-14T08:39:28;9.90;;;5.57;;
35803;SDS011;21924;51.934;7.414;2023-03-14T08:42:12;9.98;;;5.72;;
35803;SDS011;21924;51.934;7.414;2023-03-14T08:44:56;6.43;;;4.57;;
35803;SDS011;21924;51.934;7.414;2023-03-14T08:47:41;6.55;;;5.20;;
35803;SDS011;21924;51.934;7.414;2023-03-14T08:50:25;7.22;;;4.22;;
35803;SDS011;21924;51.934;7.414;2023-03-14T08:53:10;6.47;;;4.68;;
35803;SDS011;21924;51.934;7.414;2023-03-14T08:55:54;5.57;;;4.00;;
35803;SDS011;21924;51.934;7.414;2023-03-14T08:58:38;4.15;;;3.75;;
35803;SDS011;21924;51.934;7.414;2023-03-14T09:01:22;6.60;;;3.70;;
35803;SDS011;21924;51.934;7.414;2023-03-14T09:06:53;10.70;;;4.40;;
35803;SDS011;21924;51.934;7.414;2023-03-14T09:09:38;6.43;;;4.75;;
35803;SDS011;21924;51.934;7.414;2023-03-14T09:12:22;8.93;;;5.18;;
35803;SDS011;21924;51.934;7.414;2023-03-14T09:15:07;9.32;;;5.18;;
35803;SDS011;21924;51.934;7.414;2023-03-14T09:17:52;11.18;;;5.80;;
35803;SDS011;21924;51.934;7.414;2023-03-14T09:20:37;9.73;;;5.55;;
35803;SDS011;21924;51.934;7.414;2023-03-14T09:23:23;11.93;;;5.53;;
35803;SDS011;21924;51.934;7.414;2023-03-14T09:26:07;8.45;;;4.97;;
35803;SDS011;21924;51.934;7.414;2023-03-14T09:28:51;11.75;;;5.93;;
35803;SDS011;21924;51.934;7.414;2023-03-14T09:31:36;10.10;;;6.22;;
35803;SDS011;21924;51.934;7.414;2023-03-14T09:34:20;3.08;;;1.80;;
35803;SDS011;21924;51.934;7.414;2023-03-14T09:37:04;1.63;;;1.40;;
35803;SDS011;21924;51.934;7.414;2023-03-14T09:39:49;1.80;;;1.70;;
35803;SDS011;21924;51.934;7.414;2023-03-14T09:42:33;1.70;;;1.60;;
35803;SDS011;21924;51.934;7.414;2023-03-14T09:45:25;1.75;;;1.65;;
35803;SDS011;21924;51.934;7.414;2023-03-14T09:48:16;2.10;;;2.00;;
35803;SDS011;21924;51.934;7.414;2023-03-14T09:51:05;3.90;;;1.80;;
35803;SDS011;21924;51.934;7.414;2023-03-14T09:53:56;2.40;;;1.75;;
35803;SDS011;21924;51.934;7.414;2023-03-14T09:56:40;1.60;;;1.50;;
35803;SDS011;21924;51.934;7.414;2023-03-14T09:59:25;3.05;;;1.77;;
35803;SDS011;21924;51.934;7.414;2023-03-14T10:02:17;2.70;;;2.08;;
35803;SDS011;21924;51.934;7.414;2023-03-14T10:05:15;2.17;;;1.98;;
35803;SDS011;21924;51.934;7.414;2023-03-14T10:08:01;1.90;;;1.80;;
35803;SDS011;21924;51.934;7.414;2023-03-14T10:10:46;2.08;;;1.98;;
35803;SDS011;21924;51.934;7.414;2023-03-14T10:13:30;2.85;;;2.00;;
35803;SDS011;21924;51.934;7.414;2023-03-14T10:16:15;1.90;;;1.80;;
35803;SDS011;21924;51.934;7.414;2023-03-14T10:19:04;2.10;;;2.00;;
35803;SDS011;21924;51.934;7.414;2023-03-14T10:21:50;4.53;;;1.80;;
35803;SDS011;21924;51.934;7.414;2023-03-14T10:24:36;1.95;;;1.80;;
35803;SDS011;21924;51.934;7.414;2023-03-14T10:27:29;1.88;;;1.73;;
35803;SDS011;21924;51.934;7.414;2023-03-14T10:30:40;2.00;;;1.90;;
35803;SDS011;21924;51.934;7.414;2023-03-14T10:33:30;2.00;;;1.90;;
35803;SDS011;21924;51.934;7.414;2023-03-14T10:45:04;3.13;;;2.30;;
35803;SDS011;21924;51.934;7.414;2023-03-14T10:47:53;2.90;;;1.98;;
35803;SDS011;21924;51.934;7.414;2023-03-14T10:50:38;3.13;;;2.10;;
35803;SDS011;21924;51.934;7.414;2023-03-14T10:53:42;2.28;;;2.17;;
35803;SDS011;21924;51.934;7.414;2023-03-14T10:56:33;2.60;;;2.33;;
35803;SDS011;21924;51.934;7.414;2023-03-14T10:59:20;2.25;;;2.13;;
35803;SDS011;21924;51.934;7.414;2023-03-14T11:02:13;2.40;;;2.20;;
35803;SDS011;21924;51.934;7.414;2023-03-14T11:05:26;2.40;;;2.30;;
35803;SDS011;21924;51.934;7.414;2023-03-14T11:08:31;3.28;;;2.20;;
35803;SDS011;21924;51.934;7.414;2023-03-14T11:11:22;2.45;;;2.28;;
35803;SDS011;21924;51.934;7.414;2023-03-14T11:29:12;5.70;;;3.03;;
35803;SDS011;21924;51.934;7.414;2023-03-14T11:32:07;7.38;;;3.53;;
35803;SDS011;21924;51.934;7.414;2023-03-14T11:50:02;4.75;;;2.72;;
35803;SDS011;21924;51.934;7.414;2023-03-14T11:53:12;9.88;;;3.78;;
35803;SDS011;21924;51.934;7.414;2023-03-14T11:56:24;7.30;;;2.40;;
35803;SDS011;21924;51.934;7.414;2023-03-14T11:59:19;3.85;;;2.75;;
35803;SDS011;21924;51.934;7.414;2023-03-14T12:02:21;3.47;;;2.13;;
35803;SDS011;21924;51.934;7.414;2023-03-14T12:12:05;6.28;;;2.85;;
35803;SDS011;21924;51.934;7.414;2023-03-14T12:14:33;6.68;;;2.33;;
35803;SDS011;21924;51.934;7.414;2023-03-14T12:17:21;13.05;;;4.05;;
35803;SDS011;21924;51.934;7.414;2023-03-14T12:20:17;8.95;;;3.25;;
35803;SDS011;21924;51.934;7.414;2023-03-14T12:23:06;9.40;;;3.33;;
35803;SDS011;21924;51.934;7.414;2023-03-14T12:31:43;7.55;;;2.70;;
35803;SDS011;21924;51.934;7.414;2023-03-14T12:34:28;14.77;;;3.58;;
35803;SDS011;21924;51.934;7.414;2023-03-14T12:37:29;13.30;;;3.30;;
35803;SDS011;21924;51.934;7.414;2023-03-14T12:40:48;9.90;;;2.95;;
35803;SDS011;21924;51.934;7.414;2023-03-14T12:43:33;9.00;;;3.63;;
35803;SDS011;21924;51.934;7.414;2023-03-14T12:49:07;15.38;;;4.20;;
35803;SDS011;21924;51.934;7.414;2023-03-14T12:51:54;5.35;;;3.08;;
35803;SDS011;21924;51.934;7.414;2023-03-14T12:54:47;19.42;;;3.25;;
35803;SDS011;21924;51.934;7.414;2023-03-14T12:58:00;21.10;;;3.83;;
35803;SDS011;21924;51.934;7.414;2023-03-14T13:00:55;14.02;;;3.53;;
35803;SDS011;21924;51.934;7.414;2023-03-14T13:09:35;12.82;;;3.30;;
35803;SDS011;21924;51.934;7.414;2023-03-14T13:12:39;19.67;;;3.25;;
35803;SDS011;21924;51.934;7.414;2023-03-14T13:15:39;10.88;;;3.67;;
35803;SDS011;21924;51.934;7.414;2023-03-14T13:21:22;14.10;;;5.18;;
35803;SDS011;21924;51.934;7.414;2023-03-14T13:24:22;19.70;;;4.00;;
35803;SDS011;21924;51.934;7.414;2023-03-14T13:27:08;13.38;;;2.92;;
35803;SDS011;21924;51.934;7.414;2023-03-14T13:30:05;15.45;;;4.55;;
35803;SDS011;21924;51.934;7.414;2023-03-14T13:33:04;11.40;;;3.40;;
35803;SDS011;21924;51.934;7.414;2023-03-14T13:38:43;13.63;;;3.22;;
35803;SDS011;21924;51.934;7.414;2023-03-14T13:41:28;17.90;;;4.38;;
35803;SDS011;21924;51.934;7.414;2023-03-14T13:44:13;15.50;;;3.13;;
35803;SDS011;21924;51.934;7.414;2023-03-14T13:47:02;16.70;;;3.50;;
35803;SDS011;21924;51.934;7.414;2023-03-14T13:49:48;12.57;;;4.70;;
35803;SDS011;21924;51.934;7.414;2023-03-14T13:52:37;12.90;;;2.83;;
35803;SDS011;21924;51.934;7.414;2023-03-14T13:55:22;17.20;;;2.83;;
35803;SDS011;21924;51.934;7.414;2023-03-14T13:58:11;14.35;;;3.03;;
35803;SDS011;21924;51.934;7.414;2023-03-14T14:01:20;12.25;;;3.20;;
35803;SDS011;21924;51.934;7.414;2023-03-14T14:04:06;8.00;;;2.83;;
35803;SDS011;21924;51.934;7.414;2023-03-14T14:06:58;11.15;;;2.53;;
35803;SDS011;21924;51.934;7.414;2023-03-14T14:09:44;13.43;;;3.78;;
35803;SDS011;21924;51.934;7.414;2023-03-14T14:15:17;9.50;;;2.83;;
35803;SDS011;21924;51.934;7.414;2023-03-14T14:18:06;11.40;;;4.05;;
35803;SDS011;21924;51.934;7.414;2023-03-14T14:20:53;6.28;;;2.45;;
35803;SDS011;21924;51.934;7.414;2023-03-14T14:23:38;9.38;;;3.33;;
35803;SDS011;21924;51.934;7.414;2023-03-14T14:26:23;16.00;;;3.92;;
35803;SDS011;21924;51.934;7.414;2023-03-14T14:29:16;7.07;;;2.67;;
35803;SDS011;21924;51.934;7.414;2023-03-14T14:34:57;13.63;;;2.88;;
35803;SDS011;21924;51.934;7.414;2023-03-14T14:37:43;6.10;;;2.42;;
35803;SDS011;21924;51.934;7.414;2023-03-14T14:40:29;9.00;;;2.70;;
35803;SDS011;21924;51.934;7.414;2023-03-14T14:43:16;6.22;;;2.58;;
35803;SDS011;21924;51.934;7.414;2023-03-14T14:46:08;7.10;;;2.83;;
35803;SDS011;21924;51.934;7.414;2023-03-14T14:49:01;7.43;;;2.63;;
35803;SDS011;21924;51.934;7.414;2023-03-14T14:51:49;5.93;;;2.63;;
35803;SDS011;21924;51.934;7.414;2023-03-14T14:54:38;6.07;;;2.20;;
35803;SDS011;21924;51.934;7.414;2023-03-14T14:57:33;5.03;;;2.83;;
35803;SDS011;21924;51.934;7.414;2023-03-14T15:00:24;6.13;;;2.80;;
35803;SDS011;21924;51.934;7.414;2023-03-14T15:03:12;4.75;;;2.38;;
35803;SDS011;21924;51.934;7.414;2023-03-14T15:05:59;8.85;;;3.00;;
35803;SDS011;21924;51.934;7.414;2023-03-14T15:08:44;7.32;;;2.47;;
35803;SDS011;21924;51.934;7.414;2023-03-14T15:11:30;13.77;;;2.80;;
35803;SDS011;21924;51.934;7.414;2023-03-14T15:14:14;5.13;;;2.22;;
35803;SDS011;21924;51.934;7.414;2023-03-14T15:16:58;10.38;;;2.30;;
35803;SDS011;21924;51.934;7.414;2023-03-14T15:19:43;11.07;;;3.10;;
35803;SDS011;21924;51.934;7.414;2023-03-14T15:22:27;4.78;;;2.78;;
35803;SDS011;21924;51.934;7.414;2023-03-14T15:25:12;11.57;;;3.35;;
35803;SDS011;21924;51.934;7.414;2023-03-14T15:27:56;8.85;;;2.55;;
35803;SDS011;21924;51.934;7.414;2023-03-14T15:30:41;12.80;;;3.60;;
35803;SDS011;21924;51.934;7.414;2023-03-14T15:33:25;8.88;;;2.83;;
35803;SDS011;21924;51.934;7.414;2023-03-14T15:36:21;2.72;;;2.22;;
35803;SDS011;21924;51.934;7.414;2023-03-14T15:39:09;3.90;;;2.65;;
35803;SDS011;21924;51.934;7.414;2023-03-14T15:41:54;8.57;;;2.85;;
35803;SDS011;21924;51.934;7.414;2023-03-14T15:44:39;13.15;;;3.42;;
35803;SDS011;21924;51.934;7.414;2023-03-14T15:47:23;8.73;;;2.60;;
35803;SDS011;21924;51.934;7.414;2023-03-14T15:50:08;5.07;;;2.30;;
35803;SDS011;21924;51.934;7.414;2023-03-14T15:52:53;7.53;;;2.42;;
35803;SDS011;21924;51.934;7.414;2023-03-14T15:55:39;5.03;;;2.80;;
35803;SDS011;21924;51.934;7.414;2023-03-14T15:58:23;9.40;;;3.35;;
35803;SDS011;21924;51.934;7.414;2023-03-14T16:01:08;9.50;;;2.65;;
35803;SDS011;21924;51.934;7.414;2023-03-14T16:03:53;8.13;;;2.10;;
35803;SDS011;21924;51.934;7.414;2023-03-14T16:06:37;3.33;;;2.30;;
35803;SDS011;21924;51.934;7.414;2023-03-14T16:09:21;4.15;;;3.50;;
35803;SDS011;21924;51.934;7.414;2023-03-14T16:12:07;3.60;;;2.53;;
35803;SDS011;21924;51.934;7.414;2023-03-14T16:14:52;4.93;;;2.53;;
35803;SDS011;21924;51.934;7.414;2023-03-14T16:17:36;5.32;;;2.47;;
35803;SDS011;21924;51.934;7.414;2023-03-14T16:20:23;5.05;;;2.50;;
35803;SDS011;21924;51.934;7.414;2023-03-14T16:23:08;2.60;;;2.28;;
35803;SDS011;21924;51.934;7.414;2023-03-14T16:25:52;4.68;;;2.65;;
35803;SDS011;21924;51.934;7.414;2023-03-14T16:28:37;7.10;;;2.40;;
35803;SDS011;21924;51.934;7.414;2023-03-14T16:31:22;7.53;;;2.70;;
35803;SDS011;21924;51.934;7.414;2023-03-14T16:34:08;8.38;;;2.95;;
35803;SDS011;21924;51.934;7.414;2023-03-14T16:36:53;6.38;;;2.83;;
35803;SDS011;21924;51.934;7.414;2023-03-14T16:39:38;6.93;;;2.22;;
35803;SDS011;21924;51.934;7.414;2023-03-14T16:42:22;7.00;;;3.13;;
35803;SDS011;21924;51.934;7.414;2023-03-14T16:45:07;10.65;;;2.90;;
35803;SDS011;21924;51.934;7.414;2023-03-14T16:47:52;10.73;;;2.90;;
35803;SDS011;21924;51.934;7.414;2023-03-14T16:50:38;10.50;;;2.58;;
35803;SDS011;21924;51.934;7.414;2023-03-14T16:53:23;7.13;;;3.38;;
35803;SDS011;21924;51.934;7.414;2023-03-14T16:58:54;6.93;;;2.95;;
35803;SDS011;21924;51.934;7.414;2023-03-14T17:01:39;4.88;;;2.83;;
35803;SDS011;21924;51.934;7.414;2023-03-14T17:04:25;11.38;;;2.92;;
35803;SDS011;21924;51.934;7.414;2023-03-14T17:07:09;14.85;;;3.38;;
35803;SDS011;21924;51.934;7.414;2023-03-14T17:09:53;13.82;;;3.55;;
35803;SDS011;21924;51.934;7.414;2023-03-14T17:12:38;11.38;;;3.05;;
35803;SDS011;21924;51.934;7.414;2023-03-14T17:15:22;9.98;;;4.90;;
35803;SDS011;21924;51.934;7.414;2023-03-14T17:18:06;7.63;;;3.10;;
35803;SDS011;21924;51.934;7.414;2023-03-14T17:20:51;7.03;;;2.80;;
35803;SDS011;21924;51.934;7.414;2023-03-14T17:23:36;16.30;;;3.80;;
35803;SDS011;21924;51.934;7.414;2023-03-14T17:26:21;3.28;;;2.75;;
35803;SDS011;21924;51.934;7.414;2023-03-14T17:29:05;3.63;;;2.67;;
35803;SDS011;21924;51.934;7.414;2023-03-14T17:31:49;6.85;;;3.15;;
35803;SDS011;21924;51.934;7.414;2023-03-14T17:34:34;11.32;;;3.55;;
35803;SDS011;21924;51.934;7.414;2023-03-14T17:37:18;10.35;;;2.95;;
35803;SDS011;21924;51.934;7.414;2023-03-14T17:40:02;4.95;;;2.83;;
35803;SDS011;21924;51.934;7.414;2023-03-14T17:42:47;14.52;;;3.40;;
35803;SDS011;21924;51.934;7.414;2023-03-14T17:45:32;13.70;;;3.28;;
35803;SDS011;21924;51.934;7.414;2023-03-14T17:48:16;4.72;;;3.60;;
35803;SDS011;21924;51.934;7.414;2023-03-14T17:51:00;11.10;;;3.92;;
35803;SDS011;21924;51.934;7.414;2023-03-14T17:53:44;9.52;;;3.65;;
35803;SDS011;21924;51.934;7.414;2023-03-14T17:56:28;11.75;;;3.20;;
35803;SDS011;21924;51.934;7.414;2023-03-14T17:59:13;8.43;;;2.97;;
35803;SDS011;21924;51.934;7.414;2023-03-14T18:01:57;11.45;;;4.75;;